createdAt,value
2023-08-11T00:01:09.395Z,99999.53
2023-08-11T00:06:12.889Z,100001.13
2023-08-11T00:11:17.641Z,100002.53
2023-08-11T00:16:20.787Z,100004.75
2023-08-11T00:21:24.740Z,100006.81
2023-08-11T00:26:31.477Z,100011.22
2023-08-11T00:31:34.629Z,100010.03
2023-08-11T00:36:38.089Z,100013.81
2023-08-11T00:41:42.905Z,100009.53
2023-08-11T00:46:47.103Z,100022.66
2023-08-11T00:51:50.478Z,100022.16
2023-08-11T00:56:55.899Z,100019.09
2023-08-11T01:01:59.190Z,100010.53
2023-08-11T01:07:10.015Z,100004.69
2023-08-11T01:12:23.364Z,99998.22
2023-08-11T01:17:28.451Z,100003.66
2023-08-11T01:22:36.410Z,99992.56
2023-08-11T01:27:47.066Z,100012.84
2023-08-11T01:32:51.411Z,100004.63
2023-08-11T01:37:54.612Z,100007.00
2023-08-11T01:43:02.987Z,100008.38
2023-08-11T01:48:07.806Z,100004.63
2023-08-11T01:53:12.061Z,100001.91
2023-08-11T01:58:17.033Z,100003.44
2023-08-11T02:03:20.693Z,99995.06
2023-08-11T02:08:23.942Z,99991.22
2023-08-11T02:13:30.258Z,99995.31
2023-08-11T02:18:33.358Z,99992.53
2023-08-11T02:23:36.456Z,99999.81
2023-08-11T02:28:41.313Z,100015.97
2023-08-11T02:33:45.145Z,100009.81
2023-08-11T02:38:48.213Z,100013.88
2023-08-11T02:43:53.081Z,100014.16
2023-08-11T02:48:56.434Z,100008.66
2023-08-11T02:53:59.540Z,100012.66
2023-08-11T02:59:04.221Z,100003.72
2023-08-11T03:04:07.619Z,100013.91
2023-08-11T03:09:11.981Z,100017.28
2023-08-11T03:14:16.415Z,100023.69
2023-08-11T03:19:19.579Z,100016.47
2023-08-11T03:24:23.032Z,100009.63
2023-08-11T03:29:27.673Z,100011.94
2023-08-11T03:34:30.992Z,100014.28
2023-08-11T03:39:34.530Z,100015.78
2023-08-11T03:44:39.104Z,100022.31
2023-08-11T03:49:42.183Z,100020.53
2023-08-11T03:54:46.157Z,100035.69
2023-08-11T03:59:51.144Z,100023.25
2023-08-11T04:04:54.234Z,100026.28
2023-08-11T04:09:57.806Z,100037.03
2023-08-11T04:15:02.372Z,100032.88
2023-08-11T04:20:13.868Z,100029.72
2023-08-11T04:25:17.340Z,100039.75
2023-08-11T04:30:21.801Z,100031.72
2023-08-11T04:35:25.250Z,100036.16
2023-08-11T04:40:28.382Z,100034.81
2023-08-11T04:45:32.858Z,100039.97
2023-08-11T04:50:36.565Z,100032.53
2023-08-11T04:55:41.501Z,100037.81
2023-08-11T05:00:46.378Z,100035.84
2023-08-11T05:05:49.851Z,100046.66
2023-08-11T05:10:53.465Z,100044.19
2023-08-11T05:15:57.975Z,100053.47
2023-08-11T05:21:01.137Z,100055.63
2023-08-11T05:26:04.258Z,100061.69
2023-08-11T05:31:10.089Z,100056.16
2023-08-11T05:36:13.225Z,100057.75
2023-08-11T05:41:16.342Z,100053.19
2023-08-11T05:46:20.876Z,100056.66
2023-08-11T05:51:24.035Z,100051.34
2023-08-11T05:56:27.254Z,100055.84
2023-08-11T06:01:32.017Z,100036.03
2023-08-11T06:06:36.041Z,100044.03
2023-08-11T06:11:39.136Z,100034.41
2023-08-11T06:16:43.706Z,100031.78
2023-08-11T06:21:47.514Z,100033.41
2023-08-11T06:26:53.735Z,100032.81
2023-08-11T06:31:58.581Z,100036.09
2023-08-11T06:37:01.689Z,100027.38
2023-08-11T06:42:05.082Z,100031.91
2023-08-11T06:47:09.877Z,100038.28
2023-08-11T06:52:13.908Z,100035.56
2023-08-11T06:57:22.060Z,100037.41
2023-08-11T07:02:26.767Z,100041.09
2023-08-11T07:07:30.031Z,100056.09
2023-08-11T07:12:33.140Z,100048.47
2023-08-11T07:17:37.676Z,100055.25
2023-08-11T07:22:41.151Z,100065.84
2023-08-11T07:27:44.277Z,100067.13
2023-08-11T07:32:48.818Z,100062.53
2023-08-11T07:37:52.391Z,100069.31
2023-08-11T07:42:55.554Z,100068.59
2023-08-11T07:48:00.047Z,100078.03
2023-08-11T07:53:03.697Z,100073.59
2023-08-11T07:58:06.836Z,100079.53
2023-08-11T08:03:11.385Z,100076.38
2023-08-11T08:08:14.556Z,100080.13
2023-08-11T08:13:18.835Z,100082.59
2023-08-11T08:18:23.294Z,100070.16
2023-08-11T08:23:26.474Z,100073.66
2023-08-11T08:28:31.381Z,100080.13
2023-08-11T08:33:37.118Z,100077.78
2023-08-11T08:38:40.266Z,100079.47
2023-08-11T08:43:43.612Z,100078.75
2023-08-11T08:48:54.162Z,100074.47
2023-08-11T08:53:57.279Z,100083.66
2023-08-11T08:59:00.370Z,100083.81
2023-08-11T09:04:07.434Z,100085.19
2023-08-11T09:09:13.778Z,100086.28
2023-08-11T09:14:17.500Z,100074.38
2023-08-11T09:19:22.449Z,100069.59
2023-08-11T09:24:25.653Z,100077.88
2023-08-11T09:29:29.357Z,100064.31
2023-08-11T09:34:35.028Z,100058.06
2023-08-11T09:39:38.357Z,100059.41
2023-08-11T09:44:41.586Z,100058.66
2023-08-11T09:49:46.140Z,100067.91
2023-08-11T09:54:51.910Z,100054.63
2023-08-11T09:59:56.901Z,100073.44
2023-08-11T10:05:05.960Z,100064.16
2023-08-11T10:10:14.961Z,100063.53
2023-08-11T10:15:21.580Z,100054.50
2023-08-11T10:20:26.739Z,100056.34
2023-08-11T10:25:31.440Z,100046.50
2023-08-11T10:30:34.709Z,100054.28
2023-08-11T10:35:52.262Z,100049.81
2023-08-11T10:41:01.960Z,100048.00
2023-08-11T10:46:23.965Z,100043.81
2023-08-11T10:51:33.722Z,100044.69
2023-08-11T10:56:39.311Z,100042.38
2023-08-11T11:01:43.509Z,100039.59
2023-08-11T11:06:49.410Z,100035.56
2023-08-11T11:11:53.110Z,100034.28
2023-08-11T11:16:59.776Z,100032.88
2023-08-11T11:22:04.813Z,100018.53
2023-08-11T11:27:08.558Z,100021.97
2023-08-11T11:32:12.923Z,100016.03
2023-08-11T11:37:17.667Z,100011.13
2023-08-11T11:42:20.853Z,100009.06
2023-08-11T11:47:24.289Z,100006.03
2023-08-11T11:52:29.098Z,99995.69
2023-08-11T11:57:32.245Z,99995.03
2023-08-11T12:02:35.710Z,99988.44
2023-08-11T12:07:40.453Z,99987.63
2023-08-11T12:12:43.629Z,99987.41
2023-08-11T12:17:50.305Z,99989.69
2023-08-11T12:22:54.755Z,99983.41
2023-08-11T12:27:58.148Z,99993.56
2023-08-11T12:33:01.524Z,99990.47
2023-08-11T12:38:06.925Z,99988.50
2023-08-11T12:43:13.488Z,99983.66
2023-08-11T12:48:17.259Z,99985.97
2023-08-11T12:53:21.711Z,99981.78
2023-08-11T12:58:24.845Z,99981.59
2023-08-11T13:03:29.164Z,99979.19
2023-08-11T13:08:33.752Z,99981.72
2023-08-11T13:13:36.875Z,99972.78
2023-08-11T13:18:40.099Z,99970.19
2023-08-11T13:23:44.599Z,99965.28
2023-08-11T13:28:47.897Z,99963.44
2023-08-11T13:33:51.354Z,99964.06
2023-08-11T13:38:55.791Z,99960.41
2023-08-11T13:43:59.002Z,99955.66
2023-08-11T13:49:02.147Z,99943.06
2023-08-11T13:54:07.434Z,99938.03
2023-08-11T13:59:10.542Z,99934.00
2023-08-11T14:04:14.411Z,99931.75
2023-08-11T14:09:18.864Z,99931.16
2023-08-11T14:14:21.950Z,99916.44
2023-08-11T14:19:25.167Z,99916.72
2023-08-11T14:24:29.640Z,99913.69
2023-08-11T14:29:32.691Z,99913.06
2023-08-11T14:34:35.789Z,99884.22
2023-08-11T14:39:40.216Z,99866.28
2023-08-11T14:44:43.624Z,99878.63
2023-08-11T14:49:46.737Z,99888.16
2023-08-11T14:54:51.191Z,99887.00
2023-08-11T14:59:54.320Z,99878.06
2023-08-11T15:04:57.819Z,99869.91
2023-08-11T15:10:02.286Z,99869.56
2023-08-11T15:15:06.547Z,99860.06
2023-08-11T15:20:11.097Z,99858.06
2023-08-11T15:25:15.574Z,99853.25
2023-08-11T15:30:20.543Z,99857.47
2023-08-11T15:35:24.199Z,99849.59
2023-08-11T15:40:28.706Z,99843.03
2023-08-11T15:45:31.830Z,99841.88
2023-08-11T15:50:34.966Z,99839.56
2023-08-11T15:55:39.396Z,99843.84
2023-08-11T16:00:43.542Z,99844.22
2023-08-11T16:05:46.965Z,99838.81
2023-08-11T16:10:51.653Z,99831.69
2023-08-11T16:15:54.788Z,99836.69
2023-08-11T16:20:58.885Z,99830.78
2023-08-11T16:26:04.013Z,99832.50
2023-08-11T16:31:07.188Z,99836.28
2023-08-11T16:36:10.426Z,99823.44
2023-08-11T16:41:15.406Z,99819.75
2023-08-11T16:46:19.512Z,99813.53
2023-08-11T16:51:22.694Z,99805.91
2023-08-11T16:56:27.259Z,99798.69
2023-08-11T17:01:30.443Z,99785.13
2023-08-11T17:06:33.588Z,99783.19
2023-08-11T17:11:38.170Z,99775.63
2023-08-11T17:16:41.705Z,99778.13
2023-08-11T17:21:45.148Z,99779.63
2023-08-11T17:26:49.877Z,99775.69
2023-08-11T17:31:53.077Z,99774.03
2023-08-11T17:36:56.286Z,99764.47
2023-08-11T17:42:05.779Z,99781.94
2023-08-11T17:47:10.551Z,99782.69
2023-08-11T17:52:13.830Z,99780.44
2023-08-11T17:57:18.385Z,99768.31
2023-08-11T18:02:21.540Z,99766.44
2023-08-11T18:07:25.178Z,99770.66
2023-08-11T18:12:29.743Z,99773.22
2023-08-11T18:17:32.882Z,99778.31
2023-08-11T18:22:36.065Z,99762.75
2023-08-11T18:27:41.355Z,99762.41
2023-08-11T18:32:46.167Z,99755.84
2023-08-11T18:37:49.611Z,99758.59
2023-08-11T18:42:54.108Z,99755.38
2023-08-11T18:47:57.749Z,99756.19
2023-08-11T18:53:01.351Z,99752.34
2023-08-11T18:58:05.970Z,99771.22
2023-08-11T19:03:09.280Z,99771.41
2023-08-11T19:08:13.176Z,99764.97
2023-08-11T19:13:17.629Z,99768.91
2023-08-11T19:18:20.785Z,99775.38
2023-08-11T19:23:24.116Z,99775.19
2023-08-11T19:28:32.443Z,99778.63
2023-08-11T19:33:36.267Z,99778.06
2023-08-11T19:38:43.069Z,99784.47
2023-08-11T19:43:47.501Z,99775.59
2023-08-11T19:48:50.605Z,99775.38
2023-08-11T19:53:53.703Z,99776.19
2023-08-11T19:58:58.160Z,99770.47
2023-08-11T20:04:01.256Z,99768.16
2023-08-11T20:09:08.969Z,99766.50
2023-08-11T20:14:13.461Z,99773.34
2023-08-11T20:19:16.636Z,99770.63
2023-08-11T20:24:19.753Z,99757.88
2023-08-11T20:29:24.396Z,99755.09
2023-08-11T20:34:27.830Z,99753.38
2023-08-11T20:39:31.439Z,99747.47
2023-08-11T20:44:36.036Z,99742.81
2023-08-11T20:49:39.125Z,99738.41
2023-08-11T20:54:44.182Z,99738.59
2023-08-11T20:59:48.634Z,99733.50
2023-08-11T21:04:51.744Z,99733.09
2023-08-11T21:09:54.819Z,99737.97
2023-08-11T21:14:59.294Z,99745.84
2023-08-11T21:20:02.694Z,99746.91
2023-08-11T21:25:06.481Z,99751.81
2023-08-11T21:30:12.083Z,99758.19
2023-08-11T21:35:15.189Z,99758.59
2023-08-11T21:40:18.484Z,99761.34
2023-08-11T21:45:22.949Z,99756.03
2023-08-11T21:50:27.321Z,99759.63
2023-08-11T21:55:30.413Z,99759.19
2023-08-11T22:00:36.862Z,99752.63
2023-08-11T22:05:40.125Z,99748.38
2023-08-11T22:10:45.782Z,99750.28
2023-08-11T22:15:50.959Z,99749.00
2023-08-11T22:20:54.113Z,99755.97
2023-08-11T22:25:57.252Z,99751.69
2023-08-11T22:31:01.718Z,99764.59
2023-08-11T22:36:05.103Z,99764.78
2023-08-11T22:41:08.199Z,99752.88
2023-08-11T22:46:12.692Z,99748.53
2023-08-11T22:51:15.824Z,99752.34
2023-08-11T22:56:18.901Z,99754.03
2023-08-11T23:01:23.474Z,99743.41
2023-08-11T23:06:26.835Z,99743.59
2023-08-11T23:11:30.005Z,99748.84
2023-08-11T23:16:34.460Z,99749.28
2023-08-11T23:21:37.609Z,99748.81
2023-08-11T23:26:40.783Z,99743.28
2023-08-11T23:31:45.463Z,99739.00
2023-08-11T23:36:48.647Z,99746.19
2023-08-11T23:41:52.042Z,99747.88
2023-08-11T23:46:56.466Z,99744.94
2023-08-11T23:51:59.568Z,99741.16
2023-08-11T23:57:02.924Z,99740.50
